Athens, Georgia
Current Conditions -  °F | °C
As of 4:51 AM on Thursday 27 Nov 2014 (Local Time) from KAHN Reporting Station
Clear Clear  
Wind Chill: 36°   Ceiling: Unl
Heat Index: 42°   Visibility: 10mi
Dew Point: 27°   Wind: 10mph
Humidity: 55%   Direction: 280°W
Pressure: 30.09"   Gusts: 18mph
Location:  33.96°N, 83.37°W
Report Text: KAHN 270951Z AUTO 28009G16KT 10SM CLR 06/M03 A3009 RMK AO2 SLP191 T00561028
Loading
Personal Weather Stations






























Interactive Weather Map New forecast layout! Learn more

10-Day Weather Forecast

Advertisements
Track Severe Weather on mobile